createdAt,value
2022-10-23T04:30:41.488Z,13.95
2022-10-23T04:31:41.367Z,13.96
2022-10-23T04:32:41.255Z,14.02
2022-10-23T04:33:41.231Z,13.97
2022-10-23T04:34:41.232Z,13.92
2022-10-23T04:35:41.199Z,14.03
2022-10-23T04:36:41.251Z,13.96
2022-10-23T04:37:41.642Z,14.02
2022-10-23T04:38:41.158Z,14.00
2022-10-23T04:39:41.150Z,13.97
2022-10-23T04:40:41.147Z,13.99
2022-10-23T04:41:41.179Z,13.95
2022-10-23T04:42:41.530Z,13.99
2022-10-23T04:43:41.116Z,13.99
2022-10-23T04:44:41.104Z,13.99
2022-10-23T04:45:41.110Z,13.99
2022-10-23T04:46:41.147Z,14.03
2022-10-23T04:47:41.103Z,14.04
2022-10-23T04:48:41.241Z,14.06
2022-10-23T04:49:41.068Z,14.03
2022-10-23T04:50:41.080Z,14.02
2022-10-23T04:51:41.064Z,14.00
2022-10-23T04:52:41.295Z,13.97
2022-10-23T04:53:41.054Z,13.97
2022-10-23T04:54:41.057Z,13.99
2022-10-23T04:55:40.973Z,14.06
2022-10-23T04:56:40.982Z,14.09
2022-10-23T04:57:40.978Z,13.99
2022-10-23T04:58:40.942Z,14.03
2022-10-23T04:59:40.934Z,14.00
2022-10-23T05:00:41.030Z,13.91
2022-10-23T05:01:40.955Z,14.03
2022-10-23T05:02:41.180Z,14.02
2022-10-23T05:03:40.899Z,13.92
2022-10-23T05:04:40.875Z,13.97
2022-10-23T05:05:40.890Z,13.96
2022-10-23T05:06:40.906Z,13.87
2022-10-23T05:07:41.129Z,13.95
2022-10-23T05:08:40.831Z,13.91
2022-10-23T05:09:40.826Z,13.87
2022-10-23T05:10:40.808Z,13.91
2022-10-23T05:11:40.800Z,13.92
2022-10-23T05:12:40.833Z,13.95
2022-10-23T05:13:40.791Z,13.99
2022-10-23T05:14:40.807Z,13.89
2022-10-23T05:15:40.810Z,13.95
2022-10-23T05:16:40.744Z,13.91
2022-10-23T05:17:40.918Z,13.88
2022-10-23T05:18:40.851Z,13.85
2022-10-23T05:19:40.773Z,13.91
2022-10-23T05:20:40.923Z,13.84
2022-10-23T05:21:40.836Z,13.96
2022-10-23T05:22:41.016Z,13.85
2022-10-23T05:23:40.684Z,13.95
2022-10-23T05:24:40.673Z,13.82
2022-10-23T05:25:40.674Z,13.89
2022-10-23T05:26:40.637Z,13.82
2022-10-23T05:27:40.956Z,13.87
2022-10-23T05:28:40.633Z,13.88
2022-10-23T05:29:40.593Z,13.89
2022-10-23T05:30:40.597Z,13.88
2022-10-23T05:31:40.577Z,13.92
2022-10-23T05:32:40.936Z,13.88
2022-10-23T05:33:40.595Z,13.87
2022-10-23T05:34:40.557Z,13.92
2022-10-23T05:35:40.554Z,13.87
2022-10-23T05:36:40.519Z,13.87
2022-10-23T05:37:40.546Z,13.82
2022-10-23T05:38:40.490Z,13.82
2022-10-23T05:39:40.512Z,13.87
2022-10-23T05:40:40.482Z,13.88
2022-10-23T05:41:40.478Z,13.87
2022-10-23T05:42:41.706Z,13.87
2022-10-23T05:43:40.440Z,13.92
2022-10-23T05:44:40.427Z,13.89
2022-10-23T05:45:40.443Z,13.89
2022-10-23T05:46:40.403Z,13.85
2022-10-23T05:47:40.419Z,13.84
2022-10-23T05:48:40.382Z,13.91
2022-10-23T05:49:40.369Z,13.95
2022-10-23T05:50:40.374Z,13.85
2022-10-23T05:51:40.372Z,13.91
2022-10-23T05:52:40.565Z,13.84
2022-10-23T05:53:42.460Z,13.91
2022-10-23T05:54:40.315Z,13.88
2022-10-23T05:55:40.318Z,13.91
2022-10-23T05:56:40.310Z,13.91
2022-10-23T05:57:40.435Z,13.88
2022-10-23T05:58:40.291Z,13.85
2022-10-23T05:59:40.258Z,13.91
2022-10-23T06:00:40.241Z,13.84
2022-10-23T06:01:40.416Z,13.84
2022-10-23T06:02:40.372Z,13.84
2022-10-23T06:03:40.249Z,13.92
2022-10-23T06:04:40.203Z,13.89
2022-10-23T06:06:40.210Z,13.87
2022-10-23T06:07:40.170Z,13.88
2022-10-23T06:08:40.152Z,13.81
2022-10-23T06:09:40.185Z,13.88
2022-10-23T06:10:40.130Z,13.92
2022-10-23T06:11:40.143Z,13.88
2022-10-23T06:12:40.114Z,13.84
2022-10-23T06:13:40.104Z,13.79
2022-10-23T06:14:40.087Z,13.85
2022-10-23T06:15:40.136Z,13.85
2022-10-23T06:16:40.066Z,13.82
2022-10-23T06:17:40.152Z,13.85
2022-10-23T06:18:40.046Z,13.84
2022-10-23T06:19:40.028Z,13.85
2022-10-23T06:20:40.039Z,13.87
2022-10-23T06:21:40.048Z,13.87
2022-10-23T06:22:40.604Z,13.79
2022-10-23T06:23:41.028Z,13.84
2022-10-23T06:24:46.977Z,13.82
2022-10-23T06:25:40.204Z,13.85
2022-10-23T06:26:39.962Z,13.87
2022-10-23T06:27:40.896Z,13.88
2022-10-23T06:28:39.953Z,13.88
2022-10-23T06:29:40.234Z,13.82
2022-10-23T06:30:39.919Z,13.89
2022-10-23T06:31:40.156Z,13.88
2022-10-23T06:32:40.128Z,13.89
2022-10-23T06:33:40.322Z,13.88
2022-10-23T06:34:39.946Z,13.84
2022-10-23T06:35:39.899Z,13.84
2022-10-23T06:36:39.848Z,13.84
2022-10-23T06:37:39.839Z,13.92
2022-10-23T06:38:39.845Z,14.00
2022-10-23T06:39:39.821Z,13.91
2022-10-23T06:40:39.808Z,13.92
2022-10-23T06:41:39.811Z,13.99
2022-10-23T06:42:39.880Z,14.00
2022-10-23T06:43:39.765Z,13.99
2022-10-23T06:44:39.805Z,14.04
2022-10-23T06:45:39.733Z,13.99
2022-10-23T06:46:39.801Z,14.04
2022-10-23T06:47:39.911Z,14.04
2022-10-23T06:48:39.699Z,14.02
2022-10-23T06:49:39.761Z,14.02
2022-10-23T06:50:39.673Z,14.04
2022-10-23T06:51:39.691Z,14.10
2022-10-23T06:52:47.049Z,14.07
2022-10-23T06:53:40.650Z,14.12
2022-10-23T06:54:39.651Z,14.12
2022-10-23T06:55:39.654Z,14.06
2022-10-23T06:56:39.660Z,14.06
2022-10-23T06:57:39.599Z,14.10
2022-10-23T06:58:39.617Z,14.17
2022-10-23T06:59:39.583Z,14.17
2022-10-23T07:00:39.679Z,14.10
2022-10-23T07:01:39.893Z,14.22
2022-10-23T07:02:39.812Z,14.25
2022-10-23T07:03:39.535Z,14.15
2022-10-23T07:04:39.558Z,14.25
2022-10-23T07:05:39.513Z,14.20
2022-10-23T07:06:39.515Z,14.09
2022-10-23T07:07:39.513Z,14.28
2022-10-23T07:08:39.493Z,14.24
2022-10-23T07:09:39.471Z,14.22
2022-10-23T07:10:39.499Z,14.32
2022-10-23T07:11:39.449Z,14.33
2022-10-23T07:12:39.472Z,14.39
2022-10-23T07:13:39.436Z,14.43
2022-10-23T07:14:39.438Z,14.35
2022-10-23T07:15:39.411Z,14.46
2022-10-23T07:16:39.468Z,14.36
2022-10-23T07:17:39.380Z,14.43
2022-10-23T07:18:39.369Z,14.43
2022-10-23T07:19:39.375Z,14.43
2022-10-23T07:20:39.363Z,14.46
2022-10-23T07:21:39.338Z,14.35
2022-10-23T07:22:39.358Z,14.39
2022-10-23T07:23:39.324Z,14.42
2022-10-23T07:24:39.332Z,14.54
2022-10-23T07:25:39.336Z,14.51
2022-10-23T07:26:39.390Z,14.47
2022-10-23T07:27:39.406Z,14.54
2022-10-23T07:28:39.263Z,14.60
2022-10-23T07:29:39.271Z,14.77
2022-10-23T07:30:39.306Z,14.68
2022-10-23T07:31:39.238Z,14.72
2022-10-23T07:32:39.243Z,14.75
2022-10-23T07:33:39.207Z,14.75
2022-10-23T07:34:39.260Z,14.89
2022-10-23T07:35:39.400Z,14.84
2022-10-23T07:36:39.223Z,15.01
2022-10-23T07:37:39.167Z,14.99
2022-10-23T07:38:39.153Z,15.01
2022-10-23T07:39:39.160Z,15.01
2022-10-23T07:40:39.157Z,15.10
2022-10-23T07:41:39.119Z,15.10
2022-10-23T07:42:39.127Z,15.20
2022-10-23T07:43:39.098Z,15.17
2022-10-23T07:44:39.115Z,15.25
2022-10-23T07:45:39.089Z,15.27
2022-10-23T07:46:39.113Z,15.34
2022-10-23T07:47:39.061Z,15.35
2022-10-23T07:48:39.087Z,15.53
2022-10-23T07:49:39.031Z,15.56
2022-10-23T07:50:39.026Z,15.71
2022-10-23T07:51:39.034Z,15.71
2022-10-23T07:52:39.015Z,15.86
2022-10-23T07:53:38.996Z,15.84
2022-10-23T07:54:38.993Z,15.89
2022-10-23T07:55:39.008Z,15.94
2022-10-23T07:56:38.954Z,15.93
2022-10-23T07:57:38.938Z,15.90
2022-10-23T07:58:38.958Z,15.90
2022-10-23T07:59:38.969Z,15.93
2022-10-23T08:00:38.927Z,15.93
2022-10-23T08:01:39.119Z,16.17
2022-10-23T08:02:38.890Z,16.14
2022-10-23T08:03:38.880Z,16.25
2022-10-23T08:04:38.893Z,16.25
2022-10-23T08:05:38.936Z,16.34
2022-10-23T08:06:38.857Z,16.41
2022-10-23T08:07:38.852Z,16.60
2022-10-23T08:08:38.893Z,16.60
2022-10-23T08:09:38.840Z,16.63
2022-10-23T08:10:38.806Z,16.85
2022-10-23T08:11:38.844Z,16.83
2022-10-23T08:12:38.803Z,16.86
2022-10-23T08:13:38.765Z,16.67
2022-10-23T08:14:38.801Z,16.75
2022-10-23T08:15:38.761Z,16.76
2022-10-23T08:16:38.740Z,16.82
2022-10-23T08:17:38.732Z,16.83
2022-10-23T08:18:38.737Z,16.83
2022-10-23T08:19:38.725Z,16.88
2022-10-23T08:20:38.724Z,16.93
2022-10-23T08:21:38.689Z,17.01
2022-10-23T08:22:38.674Z,17.14
2022-10-23T08:23:38.682Z,17.11
2022-10-23T08:24:38.683Z,17.19
2022-10-23T08:25:38.643Z,17.21
2022-10-23T08:26:38.646Z,17.26
2022-10-23T08:27:38.620Z,17.34
2022-10-23T08:28:38.678Z,17.46
2022-10-23T08:29:38.602Z,17.56
2022-10-23T08:30:38.823Z,17.71
2022-10-23T08:31:38.654Z,17.81
2022-10-23T08:32:38.620Z,17.75
2022-10-23T08:33:38.692Z,17.81
2022-10-23T08:34:38.599Z,17.75
2022-10-23T08:35:38.534Z,17.63
2022-10-23T08:36:38.552Z,17.54
2022-10-23T08:37:38.634Z,17.54
2022-10-23T08:38:38.523Z,17.59
2022-10-23T08:39:38.482Z,17.66
2022-10-23T08:40:38.480Z,17.56
2022-10-23T08:41:38.480Z,17.62
2022-10-23T08:42:38.522Z,17.64
2022-10-23T08:43:38.489Z,17.75
2022-10-23T08:44:38.424Z,17.75
2022-10-23T08:45:38.447Z,17.81
2022-10-23T08:46:38.420Z,17.84
2022-10-23T08:47:38.406Z,17.89
2022-10-23T08:48:38.412Z,18.02
2022-10-23T08:49:38.407Z,18.11
2022-10-23T08:50:38.365Z,18.23
2022-10-23T08:51:38.419Z,18.33
2022-10-23T08:52:38.340Z,18.36
2022-10-23T08:53:38.347Z,18.29
2022-10-23T08:54:38.330Z,18.25
2022-10-23T08:55:38.335Z,18.14
2022-10-23T08:56:38.319Z,18.02
2022-10-23T08:57:41.350Z,17.95
2022-10-23T08:58:39.298Z,17.92
2022-10-23T08:59:38.270Z,17.89
2022-10-23T09:00:38.350Z,18.05
2022-10-23T09:01:38.361Z,17.97
2022-10-23T09:02:38.258Z,18.11
2022-10-23T09:03:38.234Z,18.20
2022-10-23T09:04:38.210Z,18.15
2022-10-23T09:05:38.220Z,18.32
2022-10-23T09:06:38.191Z,18.41
2022-10-23T09:07:38.191Z,18.36
2022-10-23T09:08:38.195Z,18.33
2022-10-23T09:09:38.153Z,18.52
2022-10-23T09:10:38.146Z,18.55
2022-10-23T09:11:38.138Z,18.52
2022-10-23T09:12:38.242Z,18.33
2022-10-23T09:13:38.139Z,18.39
2022-10-23T09:14:38.120Z,18.45
2022-10-23T09:15:38.111Z,18.42
2022-10-23T09:16:38.094Z,18.33
2022-10-23T09:17:38.066Z,18.26
2022-10-23T09:18:38.092Z,18.10
2022-10-23T09:19:38.048Z,18.11
2022-10-23T09:20:38.044Z,18.02
2022-10-23T09:21:38.095Z,17.82
2022-10-23T09:22:38.022Z,17.78
2022-10-23T09:23:38.012Z,17.71
2022-10-23T09:24:38.018Z,17.72
2022-10-23T09:25:37.986Z,17.70
2022-10-23T09:26:37.970Z,17.75
2022-10-23T09:27:38.063Z,17.63
2022-10-23T09:28:37.950Z,17.52
2022-10-23T09:29:37.951Z,17.52
2022-10-23T09:30:37.942Z,17.48
2022-10-23T09:31:37.921Z,17.40
2022-10-23T09:32:37.901Z,17.28
2022-10-23T09:33:37.949Z,17.23
2022-10-23T09:34:37.905Z,17.22
2022-10-23T09:35:37.868Z,17.21
2022-10-23T09:36:37.865Z,17.23
2022-10-23T09:37:37.869Z,17.11
2022-10-23T09:38:37.847Z,17.11
2022-10-23T09:39:37.854Z,17.12
2022-10-23T09:40:37.819Z,17.18
2022-10-23T09:41:37.807Z,17.14
2022-10-23T09:42:37.839Z,17.14
2022-10-23T09:43:37.792Z,17.19
2022-10-23T09:44:37.776Z,17.14
2022-10-23T09:45:37.784Z,17.14
2022-10-23T09:46:37.818Z,17.16
2022-10-23T09:47:37.775Z,17.15
2022-10-23T09:48:37.726Z,17.07
2022-10-23T09:49:37.727Z,17.06
2022-10-23T09:50:37.733Z,17.03
2022-10-23T09:51:37.755Z,17.01
2022-10-23T09:52:37.705Z,17.06
2022-10-23T09:53:37.681Z,17.07
2022-10-23T09:54:37.672Z,17.04
2022-10-23T09:55:37.666Z,17.14
2022-10-23T09:56:37.706Z,17.14
2022-10-23T09:57:37.671Z,17.22
2022-10-23T09:58:37.649Z,17.34
2022-10-23T09:59:37.612Z,17.51
2022-10-23T10:00:37.626Z,17.55
2022-10-23T10:01:37.748Z,17.54
2022-10-23T10:02:37.578Z,17.54
2022-10-23T10:03:37.629Z,17.49
2022-10-23T10:04:37.578Z,17.49
2022-10-23T10:05:37.600Z,17.48
2022-10-23T10:06:37.635Z,17.43
2022-10-23T10:07:37.534Z,17.34
2022-10-23T10:08:37.552Z,17.31
2022-10-23T10:09:37.539Z,17.33
2022-10-23T10:10:37.532Z,17.33
2022-10-23T10:11:37.502Z,17.30
2022-10-23T10:12:37.487Z,17.30
2022-10-23T10:13:37.488Z,17.30
2022-10-23T10:14:37.452Z,17.23
2022-10-23T10:15:37.515Z,17.16
2022-10-23T10:16:37.483Z,17.07
2022-10-23T10:17:37.434Z,17.11
2022-10-23T10:18:37.411Z,17.16
2022-10-23T10:19:37.411Z,17.11
2022-10-23T10:20:37.414Z,17.11
2022-10-23T10:21:37.375Z,17.07
2022-10-23T10:22:37.394Z,16.97
2022-10-23T10:23:37.344Z,17.08
2022-10-23T10:24:37.365Z,17.15
2022-10-23T10:25:37.317Z,17.01
2022-10-23T10:26:37.328Z,17.04
2022-10-23T10:27:37.301Z,16.94
2022-10-23T10:28:37.312Z,16.97
2022-10-23T10:29:37.276Z,16.89
2022-10-23T10:30:37.266Z,16.89
2022-10-23T10:31:37.250Z,16.94
2022-10-23T10:32:37.294Z,16.93
2022-10-23T10:33:37.255Z,16.85
2022-10-23T10:34:37.214Z,16.86
2022-10-23T10:35:37.205Z,16.79
2022-10-23T10:36:37.228Z,16.85
2022-10-23T10:37:37.188Z,16.78
2022-10-23T10:38:37.223Z,16.82
2022-10-23T10:39:37.192Z,16.85
2022-10-23T10:40:37.163Z,16.81
2022-10-23T10:41:37.141Z,16.81
2022-10-23T10:42:37.141Z,16.79
2022-10-23T10:43:37.117Z,16.83
2022-10-23T10:44:37.178Z,16.76
2022-10-23T10:45:37.120Z,16.82
2022-10-23T10:46:37.086Z,16.76
2022-10-23T10:47:37.074Z,16.81
2022-10-23T10:48:37.074Z,16.83
2022-10-23T10:49:37.072Z,16.85
2022-10-23T10:50:37.063Z,16.78
2022-10-23T10:51:37.045Z,16.81
2022-10-23T10:52:37.019Z,16.73
2022-10-23T10:53:37.001Z,16.63
2022-10-23T10:54:37.066Z,16.70
2022-10-23T10:55:36.983Z,16.76
2022-10-23T10:56:36.993Z,16.70
2022-10-23T10:57:36.976Z,16.64
2022-10-23T10:58:36.966Z,16.56
2022-10-23T10:59:36.942Z,16.53
2022-10-23T11:00:36.982Z,16.63
2022-10-23T11:01:37.061Z,16.58
2022-10-23T11:02:36.955Z,16.64
2022-10-23T11:03:39.885Z,16.60
2022-10-23T11:04:36.935Z,16.56
2022-10-23T11:05:36.894Z,16.52
2022-10-23T11:06:36.873Z,16.53
2022-10-23T11:07:36.864Z,16.57
2022-10-23T11:08:49.766Z,16.56
2022-10-23T11:09:37.868Z,16.49
2022-10-23T11:10:36.839Z,16.61
2022-10-23T11:11:36.835Z,16.53
2022-10-23T11:12:36.795Z,16.49
2022-10-23T11:13:36.805Z,16.48
2022-10-23T11:14:36.833Z,16.50
2022-10-23T11:15:36.781Z,16.50
2022-10-23T11:16:36.755Z,16.49
2022-10-23T11:17:36.738Z,16.50
2022-10-23T11:18:36.732Z,16.53
2022-10-23T11:19:36.721Z,16.52
2022-10-23T11:20:36.738Z,16.53
2022-10-23T11:21:36.722Z,16.58
2022-10-23T11:22:36.687Z,16.61
2022-10-23T11:23:36.678Z,16.63
2022-10-23T11:24:36.701Z,16.61
2022-10-23T11:25:36.653Z,16.70
2022-10-23T11:26:36.675Z,16.76
2022-10-23T11:27:36.630Z,16.71
2022-10-23T11:28:36.630Z,16.75
2022-10-23T11:29:36.610Z,16.81
2022-10-23T11:30:36.614Z,16.88
2022-10-23T11:31:36.617Z,16.81
2022-10-23T11:32:36.640Z,16.97
2022-10-23T11:33:37.651Z,16.86
2022-10-23T11:34:36.559Z,16.96
2022-10-23T11:35:36.550Z,17.11
2022-10-23T11:36:36.570Z,17.12
2022-10-23T11:37:36.531Z,17.07
2022-10-23T11:38:36.588Z,17.18
2022-10-23T11:39:36.514Z,17.15
2022-10-23T11:40:36.499Z,17.14
2022-10-23T11:41:36.484Z,17.14
2022-10-23T11:42:36.491Z,17.22
2022-10-23T11:43:36.492Z,17.25
2022-10-23T11:44:36.478Z,17.19
2022-10-23T11:45:36.428Z,17.25
2022-10-23T11:46:36.442Z,17.31
2022-10-23T11:47:39.573Z,17.34
2022-10-23T11:48:36.420Z,17.30
2022-10-23T11:49:36.420Z,17.36
2022-10-23T11:50:36.477Z,17.34
2022-10-23T11:51:36.366Z,17.40
2022-10-23T11:52:45.478Z,17.33
2022-10-23T11:53:37.371Z,17.48
2022-10-23T11:54:36.363Z,17.41
2022-10-23T11:55:36.360Z,17.30
2022-10-23T11:56:36.323Z,17.48
2022-10-23T11:57:36.305Z,17.36
2022-10-23T11:58:36.326Z,17.30
2022-10-23T11:59:36.297Z,17.34
2022-10-23T12:00:36.266Z,17.31
2022-10-23T12:01:36.422Z,17.41
2022-10-23T12:02:36.311Z,17.33
2022-10-23T12:03:36.260Z,17.41
2022-10-23T12:04:36.242Z,17.43
2022-10-23T12:05:36.217Z,17.49
2022-10-23T12:06:36.215Z,17.49
2022-10-23T12:07:36.255Z,17.49
2022-10-23T12:08:36.179Z,17.38
2022-10-23T12:09:36.206Z,17.51
2022-10-23T12:10:36.171Z,17.52
2022-10-23T12:11:36.139Z,17.56
2022-10-23T12:12:36.128Z,17.63
2022-10-23T12:13:36.197Z,17.72
2022-10-23T12:14:36.150Z,17.74
2022-10-23T12:15:36.102Z,17.74
2022-10-23T12:16:36.104Z,17.74
2022-10-23T12:17:36.083Z,17.89
2022-10-23T12:18:36.095Z,17.78
2022-10-23T12:19:36.148Z,17.84
2022-10-23T12:20:36.051Z,17.82
2022-10-23T12:21:36.039Z,17.86
2022-10-23T12:22:36.035Z,17.84
2022-10-23T12:23:36.006Z,17.92
2022-10-23T12:24:36.003Z,17.82
2022-10-23T12:25:36.049Z,17.82
2022-10-23T12:26:36.007Z,17.90
2022-10-23T12:27:35.970Z,17.79
2022-10-23T12:28:35.969Z,17.77
2022-10-23T12:29:35.957Z,17.95
2022-10-23T12:30:35.956Z,17.84
2022-10-23T12:31:35.974Z,17.84
2022-10-23T12:32:35.930Z,17.79
2022-10-23T12:33:35.910Z,17.82
2022-10-23T12:34:35.901Z,17.84
2022-10-23T12:35:35.904Z,17.79
2022-10-23T12:36:35.889Z,17.86
2022-10-23T12:37:35.941Z,17.93
2022-10-23T12:38:36.528Z,17.93
2022-10-23T12:39:35.839Z,17.95
2022-10-23T12:40:36.002Z,18.00
2022-10-23T12:41:35.816Z,17.96
2022-10-23T12:42:35.806Z,18.03
2022-10-23T12:43:35.879Z,17.99
2022-10-23T12:44:35.790Z,17.96
2022-10-23T12:45:35.773Z,17.95
2022-10-23T12:46:35.807Z,17.96
2022-10-23T12:47:35.812Z,17.95
2022-10-23T12:48:35.754Z,18.05
2022-10-23T12:49:35.833Z,17.97
2022-10-23T12:50:35.744Z,18.03
2022-10-23T12:51:35.713Z,17.99
2022-10-23T12:52:35.708Z,18.02
2022-10-23T12:53:35.737Z,18.00
2022-10-23T12:54:35.673Z,17.97
2022-10-23T12:55:36.154Z,18.00
2022-10-23T12:56:35.668Z,18.02
2022-10-23T12:57:35.656Z,18.00
2022-10-23T12:58:35.635Z,18.07
2022-10-23T12:59:35.664Z,18.03
2022-10-23T13:00:35.628Z,18.03
2022-10-23T13:01:36.976Z,18.00
2022-10-23T13:02:35.740Z,17.97
2022-10-23T13:03:35.590Z,17.97
2022-10-23T13:04:35.616Z,17.96
2022-10-23T13:05:35.600Z,17.99
2022-10-23T13:06:35.588Z,18.05
2022-10-23T13:07:35.554Z,18.02
2022-10-23T13:08:35.557Z,18.02
2022-10-23T13:09:35.511Z,18.10
2022-10-23T13:10:35.500Z,18.08
2022-10-23T13:11:35.489Z,18.12
2022-10-23T13:12:35.581Z,18.11
2022-10-23T13:13:35.492Z,18.11
2022-10-23T13:14:38.211Z,18.11
2022-10-23T13:15:36.445Z,18.18
2022-10-23T13:16:35.442Z,18.12
2022-10-23T13:17:35.503Z,18.14
2022-10-23T13:18:35.430Z,18.14
2022-10-23T13:19:35.411Z,18.20
2022-10-23T13:20:35.409Z,18.26
2022-10-23T13:21:35.378Z,18.33
2022-10-23T13:22:35.379Z,18.25
2022-10-23T13:23:35.401Z,18.25
2022-10-23T13:24:35.378Z,18.26
2022-10-23T13:25:35.373Z,18.29
2022-10-23T13:26:35.345Z,18.32
2022-10-23T13:27:35.362Z,18.33
2022-10-23T13:28:35.327Z,18.32
2022-10-23T13:29:35.329Z,18.33
2022-10-23T13:30:35.314Z,18.37
2022-10-23T13:31:35.287Z,18.32
2022-10-23T13:32:35.262Z,18.41
2022-10-23T13:33:35.286Z,18.44
2022-10-23T13:34:35.255Z,18.42
2022-10-23T13:35:35.246Z,18.42
2022-10-23T13:36:35.246Z,18.47
2022-10-23T13:37:35.256Z,18.39
2022-10-23T13:38:35.222Z,18.42
2022-10-23T13:39:35.200Z,18.44
2022-10-23T13:40:35.182Z,18.47
2022-10-23T13:41:35.191Z,18.54
2022-10-23T13:42:35.222Z,18.50
2022-10-23T13:43:35.143Z,18.45
2022-10-23T13:44:35.150Z,18.50
2022-10-23T13:45:35.128Z,18.60
2022-10-23T13:46:35.125Z,18.50
2022-10-23T13:47:35.102Z,18.48
2022-10-23T13:48:35.139Z,18.55
2022-10-23T13:49:35.126Z,18.48
2022-10-23T13:50:35.084Z,18.55
2022-10-23T13:51:38.758Z,18.63
2022-10-23T13:52:36.043Z,18.58
2022-10-23T13:53:35.029Z,18.52
2022-10-23T13:54:35.087Z,18.60
2022-10-23T13:55:35.009Z,18.58
2022-10-23T13:56:35.012Z,18.52
2022-10-23T13:57:34.994Z,18.45
2022-10-23T13:58:34.981Z,18.55
2022-10-23T13:59:34.969Z,18.44
2022-10-23T14:00:35.009Z,18.54
2022-10-23T14:01:35.062Z,18.55
2022-10-23T14:02:34.987Z,18.51
2022-10-23T14:03:34.927Z,18.58
2022-10-23T14:04:34.919Z,18.45
2022-10-23T14:05:34.909Z,18.42
2022-10-23T14:06:34.964Z,18.45
2022-10-23T14:07:34.882Z,18.58
2022-10-23T14:08:34.895Z,18.45
2022-10-23T14:09:34.862Z,18.55
2022-10-23T14:10:34.851Z,18.50
2022-10-23T14:11:34.877Z,18.51
2022-10-23T14:12:34.852Z,18.50
2022-10-23T14:13:34.864Z,18.55
2022-10-23T14:14:34.827Z,18.55
2022-10-23T14:15:34.818Z,18.57
2022-10-23T14:16:34.783Z,18.47
2022-10-23T14:17:34.770Z,18.60
2022-10-23T14:18:34.802Z,18.51
2022-10-23T14:19:34.759Z,18.57
2022-10-23T14:20:34.768Z,18.54
2022-10-23T14:21:34.739Z,18.57
2022-10-23T14:22:34.741Z,18.51
2022-10-23T14:23:34.706Z,18.50
2022-10-23T14:24:34.724Z,18.47
2022-10-23T14:25:34.689Z,18.57
2022-10-23T14:26:34.693Z,18.55
2022-10-23T14:27:34.682Z,18.55
2022-10-23T14:28:34.653Z,18.57
2022-10-23T14:29:34.665Z,18.39
2022-10-23T14:30:34.667Z,18.41
2022-10-23T14:31:34.623Z,18.47
2022-10-23T14:32:34.613Z,18.51
2022-10-23T14:33:34.607Z,18.45
2022-10-23T14:34:34.609Z,18.41
2022-10-23T14:35:34.619Z,18.35
2022-10-23T14:36:43.619Z,18.41
2022-10-23T14:37:35.551Z,18.51
2022-10-23T14:38:34.594Z,18.33
2022-10-23T14:39:34.564Z,18.45
2022-10-23T14:40:34.556Z,18.42
2022-10-23T14:41:34.541Z,18.41
2022-10-23T14:42:34.510Z,18.45
2022-10-23T14:43:34.532Z,18.41
2022-10-23T14:44:34.582Z,18.39
2022-10-23T14:45:34.472Z,18.37
2022-10-23T14:46:34.502Z,18.42
2022-10-23T14:47:34.463Z,18.42
2022-10-23T14:48:34.479Z,18.42
2022-10-23T14:49:34.423Z,18.39
2022-10-23T14:50:34.412Z,18.45
2022-10-23T14:51:34.402Z,18.47
2022-10-23T14:52:34.392Z,18.30
2022-10-23T14:53:34.423Z,18.37
2022-10-23T14:54:34.399Z,18.35
2022-10-23T14:55:34.376Z,18.35
2022-10-23T14:56:34.347Z,18.35
2022-10-23T14:57:34.329Z,18.44
2022-10-23T14:58:34.354Z,18.39
2022-10-23T14:59:34.391Z,18.37
2022-10-23T15:00:34.304Z,18.39
2022-10-23T15:01:34.471Z,18.44
2022-10-23T15:02:34.287Z,18.33
2022-10-23T15:03:34.278Z,18.41
2022-10-23T15:04:34.255Z,18.44
2022-10-23T15:05:34.321Z,18.42
2022-10-23T15:06:34.269Z,18.44
2022-10-23T15:07:34.243Z,18.42
2022-10-23T15:08:34.205Z,18.42
2022-10-23T15:09:34.198Z,18.45
2022-10-23T15:10:34.212Z,18.39
2022-10-23T15:11:34.197Z,18.35
2022-10-23T15:12:34.185Z,18.33
2022-10-23T15:13:34.157Z,18.35
2022-10-23T15:14:34.148Z,18.37
2022-10-23T15:15:34.140Z,18.33
2022-10-23T15:16:34.420Z,18.35
2022-10-23T15:17:35.345Z,18.36
2022-10-23T15:19:34.085Z,18.36
2022-10-23T15:20:34.076Z,18.33
2022-10-23T15:21:34.216Z,18.33
2022-10-23T15:22:34.075Z,18.35
2022-10-23T15:23:34.848Z,18.32
2022-10-23T15:24:34.054Z,18.33
2022-10-23T15:25:34.086Z,18.30
2022-10-23T15:26:34.037Z,18.36
2022-10-23T15:27:34.031Z,18.33
2022-10-23T15:28:33.993Z,18.32
2022-10-23T15:29:34.035Z,18.32
2022-10-23T15:30:33.997Z,18.32
2022-10-23T15:31:36.892Z,18.30
2022-10-23T15:32:34.919Z,18.27
2022-10-23T15:33:34.883Z,18.36
2022-10-23T15:34:33.939Z,18.36
2022-10-23T15:35:34.897Z,18.30
2022-10-23T15:36:33.988Z,18.39
2022-10-23T15:37:33.896Z,18.32
2022-10-23T15:38:34.851Z,18.33
2022-10-23T15:39:33.948Z,18.36
2022-10-23T15:40:34.016Z,18.36
2022-10-23T15:41:33.912Z,18.36
2022-10-23T15:42:35.437Z,18.35
2022-10-23T15:43:33.855Z,18.44
2022-10-23T15:44:34.395Z,18.37
2022-10-23T15:45:33.825Z,18.35
2022-10-23T15:46:33.792Z,18.37
2022-10-23T15:47:33.854Z,18.36
2022-10-23T15:48:33.779Z,18.32
2022-10-23T15:49:34.346Z,18.33
2022-10-23T15:50:33.763Z,18.33
2022-10-23T15:51:34.348Z,18.32
2022-10-23T15:52:33.754Z,18.35
2022-10-23T15:53:33.759Z,18.36
2022-10-23T15:54:34.355Z,18.36
2022-10-23T15:55:33.755Z,18.33
2022-10-23T15:56:33.691Z,18.37
2022-10-23T15:57:33.674Z,18.29
2022-10-23T15:58:33.689Z,18.32
2022-10-23T15:59:34.449Z,18.36
2022-10-23T16:01:33.702Z,18.41
2022-10-23T16:02:33.794Z,18.36
2022-10-23T16:03:33.626Z,18.35
2022-10-23T16:04:33.640Z,18.35
2022-10-23T16:05:34.415Z,18.37
2022-10-23T16:06:33.629Z,18.33
2022-10-23T16:07:34.387Z,18.36
2022-10-23T16:08:34.343Z,18.36
2022-10-23T16:09:33.543Z,18.30
2022-10-23T16:10:33.539Z,18.37
2022-10-23T16:11:33.573Z,18.30
2022-10-23T16:12:33.513Z,18.33
2022-10-23T16:13:33.499Z,18.33
2022-10-23T16:14:33.539Z,18.36
2022-10-23T16:15:34.349Z,18.32
2022-10-23T16:16:33.489Z,18.33
2022-10-23T16:17:34.365Z,18.30
2022-10-23T16:18:34.341Z,18.30
2022-10-23T16:19:33.454Z,18.27
2022-10-23T16:20:33.418Z,18.25
2022-10-23T16:21:33.413Z,18.26
2022-10-23T16:22:33.440Z,18.27
2022-10-23T16:23:33.410Z,18.26
2022-10-23T16:24:33.415Z,18.23
2022-10-23T16:26:33.365Z,18.35
2022-10-23T16:27:33.371Z,18.33
2022-10-23T16:28:33.332Z,18.30
2022-10-23T16:29:33.340Z,18.29
2022-10-23T16:30:33.381Z,18.35
2022-10-23T16:31:33.314Z,18.27
2022-10-23T16:32:33.302Z,18.21
2022-10-23T16:33:33.316Z,18.25
2022-10-23T16:34:33.282Z,18.25
2022-10-23T16:35:33.267Z,18.12
2022-10-23T16:36:33.282Z,18.23
2022-10-23T16:37:33.254Z,18.15
2022-10-23T16:38:33.235Z,18.14
2022-10-23T16:39:33.363Z,18.14
2022-10-23T16:40:33.231Z,18.15
2022-10-23T16:41:33.201Z,18.17
2022-10-23T16:42:33.237Z,18.08
2022-10-23T16:43:33.196Z,18.08
2022-10-23T16:44:33.164Z,18.08
2022-10-23T16:45:35.663Z,17.97
2022-10-23T16:46:33.198Z,18.07
2022-10-23T16:47:33.125Z,18.08
2022-10-23T16:48:33.116Z,18.00
2022-10-23T16:49:33.125Z,18.00
2022-10-23T16:50:33.255Z,17.96
2022-10-23T16:51:33.092Z,17.90
2022-10-23T16:52:33.118Z,18.00
2022-10-23T16:53:33.082Z,17.90
2022-10-23T16:54:33.053Z,17.97
2022-10-23T16:55:33.057Z,17.89
2022-10-23T16:56:33.045Z,17.96
2022-10-23T16:57:33.019Z,17.96
2022-10-23T16:58:33.047Z,17.82
2022-10-23T16:59:32.997Z,17.87
2022-10-23T17:00:32.983Z,17.84
2022-10-23T17:01:33.238Z,17.84
2022-10-23T17:02:33.207Z,17.77
2022-10-23T17:03:32.961Z,17.81
2022-10-23T17:04:32.945Z,17.71
2022-10-23T17:05:32.936Z,17.56
2022-10-23T17:06:32.925Z,17.56
2022-10-23T17:07:32.958Z,17.48
2022-10-23T17:08:32.907Z,17.49
2022-10-23T17:09:32.922Z,17.49
2022-10-23T17:10:32.883Z,17.46
2022-10-23T17:11:32.871Z,17.30
2022-10-23T17:12:32.862Z,17.33
2022-10-23T17:13:32.903Z,17.34
2022-10-23T17:14:32.840Z,17.30
2022-10-23T17:15:32.899Z,17.28
2022-10-23T17:16:32.855Z,17.18
2022-10-23T17:17:32.815Z,17.14
2022-10-23T17:18:32.876Z,17.11
2022-10-23T17:19:44.141Z,17.07
2022-10-23T17:20:33.802Z,16.98
2022-10-23T17:21:32.770Z,16.98
2022-10-23T17:22:32.753Z,16.93
2022-10-23T17:23:32.748Z,16.79
2022-10-23T17:24:32.740Z,16.86
2022-10-23T17:25:32.718Z,16.76
2022-10-23T17:26:32.781Z,16.75